sensor_id;sensor_type;location;lat;lon;timestamp;P1;durP1;ratioP1;P2;durP2;ratioP2
9034;SDS011;4552;43.422;24.592;2024-03-02T02:07:14;32.17;;;18.70;;
9034;SDS011;4552;43.422;24.592;2024-03-02T02:09:41;33.83;;;17.97;;
9034;SDS011;4552;43.422;24.592;2024-03-02T02:12:08;32.57;;;18.53;;
9034;SDS011;4552;43.422;24.592;2024-03-02T02:14:35;37.03;;;19.57;;
9034;SDS011;4552;43.422;24.592;2024-03-02T02:17:04;36.33;;;18.67;;
9034;SDS011;4552;43.422;24.592;2024-03-02T02:19:31;32.97;;;17.83;;
9034;SDS011;4552;43.422;24.592;2024-03-02T02:31:41;26.70;;;15.70;;
9034;SDS011;4552;43.422;24.592;2024-03-02T02:34:08;28.33;;;16.73;;
9034;SDS011;4552;43.422;24.592;2024-03-02T02:36:36;27.37;;;15.27;;
9034;SDS011;4552;43.422;24.592;2024-03-02T02:39:05;25.83;;;14.97;;
9034;SDS011;4552;43.422;24.592;2024-03-02T02:41:36;26.40;;;15.00;;
9034;SDS011;4552;43.422;24.592;2024-03-02T02:44:03;22.23;;;13.43;;
9034;SDS011;4552;43.422;24.592;2024-03-02T02:46:31;24.43;;;13.50;;
9034;SDS011;4552;43.422;24.592;2024-03-02T02:48:58;26.87;;;13.20;;
9034;SDS011;4552;43.422;24.592;2024-03-02T02:51:25;20.77;;;13.17;;
9034;SDS011;4552;43.422;24.592;2024-03-02T02:53:52;18.50;;;11.50;;
9034;SDS011;4552;43.422;24.592;2024-03-02T02:56:19;23.70;;;11.90;;
9034;SDS011;4552;43.422;24.592;2024-03-02T02:58:46;18.03;;;10.30;;
9034;SDS011;4552;43.422;24.592;2024-03-02T03:01:12;17.50;;;10.80;;
9034;SDS011;4552;43.422;24.592;2024-03-02T03:03:41;17.83;;;10.03;;
9034;SDS011;4552;43.422;24.592;2024-03-02T03:06:08;19.57;;;9.90;;
9034;SDS011;4552;43.422;24.592;2024-03-02T03:08:35;20.80;;;10.67;;
9034;SDS011;4552;43.422;24.592;2024-03-02T03:11:02;15.37;;;9.13;;
9034;SDS011;4552;43.422;24.592;2024-03-02T03:13:29;20.30;;;9.53;;
9034;SDS011;4552;43.422;24.592;2024-03-02T03:15:56;23.70;;;10.50;;
9034;SDS011;4552;43.422;24.592;2024-03-02T03:18:23;15.40;;;8.87;;
9034;SDS011;4552;43.422;24.592;2024-03-02T03:57:50;16.20;;;9.37;;
9034;SDS011;4552;43.422;24.592;2024-03-02T04:00:17;20.23;;;9.17;;
9034;SDS011;4552;43.422;24.592;2024-03-02T04:02:44;21.63;;;9.70;;
9034;SDS011;4552;43.422;24.592;2024-03-02T04:05:11;15.47;;;9.00;;
9034;SDS011;4552;43.422;24.592;2024-03-02T04:11:15;22.27;;;10.03;;
9034;SDS011;4552;43.422;24.592;2024-03-02T04:13:43;17.90;;;9.27;;
9034;SDS011;4552;43.422;24.592;2024-03-02T04:16:10;21.93;;;10.23;;
9034;SDS011;4552;43.422;24.592;2024-03-02T04:18:37;18.77;;;10.03;;
9034;SDS011;4552;43.422;24.592;2024-03-02T04:21:04;25.37;;;9.70;;
9034;SDS011;4552;43.422;24.592;2024-03-02T04:23:32;18.03;;;9.20;;
9034;SDS011;4552;43.422;24.592;2024-03-02T04:25:58;17.33;;;9.97;;
9034;SDS011;4552;43.422;24.592;2024-03-02T04:28:25;15.63;;;8.63;;
9034;SDS011;4552;43.422;24.592;2024-03-02T04:30:54;19.93;;;9.53;;
9034;SDS011;4552;43.422;24.592;2024-03-02T04:33:20;14.70;;;9.13;;
9034;SDS011;4552;43.422;24.592;2024-03-02T04:35:47;13.93;;;9.13;;
9034;SDS011;4552;43.422;24.592;2024-03-02T04:38:15;13.70;;;8.77;;
9034;SDS011;4552;43.422;24.592;2024-03-02T04:40:42;18.97;;;8.80;;
9034;SDS011;4552;43.422;24.592;2024-03-02T04:43:08;14.90;;;10.00;;
9034;SDS011;4552;43.422;24.592;2024-03-02T04:45:37;20.10;;;9.27;;
9034;SDS011;4552;43.422;24.592;2024-03-02T04:48:06;18.33;;;10.80;;
9034;SDS011;4552;43.422;24.592;2024-03-02T05:00:38;16.93;;;9.37;;
9034;SDS011;4552;43.422;24.592;2024-03-02T05:03:07;20.73;;;10.47;;
9034;SDS011;4552;43.422;24.592;2024-03-02T05:12:18;19.23;;;9.87;;
9034;SDS011;4552;43.422;24.592;2024-03-02T05:15:20;23.83;;;11.60;;
9034;SDS011;4552;43.422;24.592;2024-03-02T05:17:47;14.77;;;9.80;;
9034;SDS011;4552;43.422;24.592;2024-03-02T05:20:16;24.13;;;11.40;;
9034;SDS011;4552;43.422;24.592;2024-03-02T05:22:43;19.13;;;9.80;;
9034;SDS011;4552;43.422;24.592;2024-03-02T05:25:10;15.77;;;9.93;;
9034;SDS011;4552;43.422;24.592;2024-03-02T05:27:37;17.10;;;10.40;;
9034;SDS011;4552;43.422;24.592;2024-03-02T05:30:04;20.87;;;10.23;;
9034;SDS011;4552;43.422;24.592;2024-03-02T05:32:32;19.23;;;9.70;;
9034;SDS011;4552;43.422;24.592;2024-03-02T05:34:59;22.03;;;9.67;;
9034;SDS011;4552;43.422;24.592;2024-03-02T07:32:02;23.27;;;12.00;;
9034;SDS011;4552;43.422;24.592;2024-03-02T07:34:30;24.70;;;12.13;;
9034;SDS011;4552;43.422;24.592;2024-03-02T08:27:25;20.07;;;10.97;;
9034;SDS011;4552;43.422;24.592;2024-03-02T08:29:53;19.90;;;11.17;;
9034;SDS011;4552;43.422;24.592;2024-03-02T08:32:19;21.97;;;12.07;;
9034;SDS011;4552;43.422;24.592;2024-03-02T08:34:47;20.53;;;11.53;;
9034;SDS011;4552;43.422;24.592;2024-03-02T10:58:48;25.63;;;12.60;;
9034;SDS011;4552;43.422;24.592;2024-03-02T11:01:21;21.00;;;10.47;;
9034;SDS011;4552;43.422;24.592;2024-03-02T11:03:48;17.43;;;10.43;;
9034;SDS011;4552;43.422;24.592;2024-03-02T11:06:15;17.67;;;11.37;;
9034;SDS011;4552;43.422;24.592;2024-03-02T11:22:11;18.33;;;9.93;;
9034;SDS011;4552;43.422;24.592;2024-03-02T11:24:40;16.00;;;9.17;;
9034;SDS011;4552;43.422;24.592;2024-03-02T11:27:14;21.17;;;10.30;;
9034;SDS011;4552;43.422;24.592;2024-03-02T11:33:24;17.30;;;10.90;;
9034;SDS011;4552;43.422;24.592;2024-03-02T11:35:56;21.17;;;10.23;;
9034;SDS011;4552;43.422;24.592;2024-03-02T11:38:28;17.97;;;10.50;;
9034;SDS011;4552;43.422;24.592;2024-03-02T11:40:57;17.93;;;10.33;;
9034;SDS011;4552;43.422;24.592;2024-03-02T11:43:27;22.00;;;9.97;;
9034;SDS011;4552;43.422;24.592;2024-03-02T11:45:57;18.47;;;11.23;;
9034;SDS011;4552;43.422;24.592;2024-03-02T11:48:25;18.83;;;11.20;;
9034;SDS011;4552;43.422;24.592;2024-03-02T11:50:52;21.70;;;10.80;;
9034;SDS011;4552;43.422;24.592;2024-03-02T11:53:19;18.50;;;9.40;;
9034;SDS011;4552;43.422;24.592;2024-03-02T11:55:48;20.57;;;9.33;;
9034;SDS011;4552;43.422;24.592;2024-03-02T11:58:16;21.17;;;8.93;;
9034;SDS011;4552;43.422;24.592;2024-03-02T12:00:45;17.50;;;9.33;;
9034;SDS011;4552;43.422;24.592;2024-03-02T12:03:13;21.37;;;9.70;;
9034;SDS011;4552;43.422;24.592;2024-03-02T12:05:40;19.27;;;11.30;;
9034;SDS011;4552;43.422;24.592;2024-03-02T12:31:43;22.57;;;9.77;;
9034;SDS011;4552;43.422;24.592;2024-03-02T12:34:11;17.97;;;10.43;;
9034;SDS011;4552;43.422;24.592;2024-03-02T12:36:40;23.83;;;12.50;;
9034;SDS011;4552;43.422;24.592;2024-03-02T12:39:07;20.20;;;9.30;;
9034;SDS011;4552;43.422;24.592;2024-03-02T12:41:36;15.10;;;9.80;;
9034;SDS011;4552;43.422;24.592;2024-03-02T12:44:04;13.53;;;8.90;;
9034;SDS011;4552;43.422;24.592;2024-03-02T12:46:31;17.60;;;9.23;;
9034;SDS011;4552;43.422;24.592;2024-03-02T12:49:04;19.47;;;10.27;;
9034;SDS011;4552;43.422;24.592;2024-03-02T12:51:34;21.07;;;9.80;;
9034;SDS011;4552;43.422;24.592;2024-03-02T12:57:25;19.20;;;9.87;;
9034;SDS011;4552;43.422;24.592;2024-03-02T12:59:56;17.07;;;9.57;;
9034;SDS011;4552;43.422;24.592;2024-03-02T13:02:27;22.27;;;9.47;;
9034;SDS011;4552;43.422;24.592;2024-03-02T13:04:57;19.33;;;9.27;;
9034;SDS011;4552;43.422;24.592;2024-03-02T13:07:25;17.80;;;9.80;;
9034;SDS011;4552;43.422;24.592;2024-03-02T13:09:52;19.87;;;9.77;;
9034;SDS011;4552;43.422;24.592;2024-03-02T13:12:21;16.40;;;9.63;;
9034;SDS011;4552;43.422;24.592;2024-03-02T13:14:49;20.77;;;9.60;;
9034;SDS011;4552;43.422;24.592;2024-03-02T13:17:18;17.07;;;9.97;;
9034;SDS011;4552;43.422;24.592;2024-03-02T13:19:51;21.60;;;11.10;;
9034;SDS011;4552;43.422;24.592;2024-03-02T13:45:29;23.53;;;10.40;;
9034;SDS011;4552;43.422;24.592;2024-03-02T13:47:56;16.93;;;10.57;;
9034;SDS011;4552;43.422;24.592;2024-03-02T13:50:24;20.40;;;10.03;;
9034;SDS011;4552;43.422;24.592;2024-03-02T13:52:51;18.63;;;10.23;;
9034;SDS011;4552;43.422;24.592;2024-03-02T13:55:18;17.13;;;10.20;;
9034;SDS011;4552;43.422;24.592;2024-03-02T13:57:46;19.20;;;9.37;;
9034;SDS011;4552;43.422;24.592;2024-03-02T14:00:17;19.50;;;9.90;;
9034;SDS011;4552;43.422;24.592;2024-03-02T14:02:45;20.10;;;9.50;;
9034;SDS011;4552;43.422;24.592;2024-03-02T14:05:14;16.23;;;9.87;;
9034;SDS011;4552;43.422;24.592;2024-03-02T14:07:42;19.97;;;9.73;;
9034;SDS011;4552;43.422;24.592;2024-03-02T14:10:09;19.40;;;9.87;;
9034;SDS011;4552;43.422;24.592;2024-03-02T14:12:36;20.67;;;10.60;;
9034;SDS011;4552;43.422;24.592;2024-03-02T14:15:04;17.97;;;9.87;;
9034;SDS011;4552;43.422;24.592;2024-03-02T14:17:33;16.03;;;9.53;;
9034;SDS011;4552;43.422;24.592;2024-03-02T14:20:00;17.93;;;10.73;;
9034;SDS011;4552;43.422;24.592;2024-03-02T14:59:30;16.40;;;10.17;;
9034;SDS011;4552;43.422;24.592;2024-03-02T15:01:57;17.87;;;10.37;;
9034;SDS011;4552;43.422;24.592;2024-03-02T15:04:24;16.10;;;10.53;;
9034;SDS011;4552;43.422;24.592;2024-03-02T15:06:52;20.40;;;10.50;;
9034;SDS011;4552;43.422;24.592;2024-03-02T15:12:40;22.07;;;10.37;;
9034;SDS011;4552;43.422;24.592;2024-03-02T15:15:09;18.70;;;10.80;;
9034;SDS011;4552;43.422;24.592;2024-03-02T15:17:36;16.93;;;10.60;;
9034;SDS011;4552;43.422;24.592;2024-03-02T15:20:07;20.03;;;9.90;;
9034;SDS011;4552;43.422;24.592;2024-03-02T15:32:41;18.90;;;9.97;;
9034;SDS011;4552;43.422;24.592;2024-03-02T15:35:08;18.30;;;10.10;;
9034;SDS011;4552;43.422;24.592;2024-03-02T15:51:14;21.00;;;10.77;;
9034;SDS011;4552;43.422;24.592;2024-03-02T15:53:41;17.93;;;10.00;;
9034;SDS011;4552;43.422;24.592;2024-03-02T15:56:09;17.13;;;10.90;;
9034;SDS011;4552;43.422;24.592;2024-03-02T15:58:36;17.40;;;10.73;;
9034;SDS011;4552;43.422;24.592;2024-03-02T16:01:04;22.10;;;11.67;;
9034;SDS011;4552;43.422;24.592;2024-03-02T16:03:31;18.73;;;11.97;;
9034;SDS011;4552;43.422;24.592;2024-03-02T16:05:58;20.33;;;11.50;;
9034;SDS011;4552;43.422;24.592;2024-03-02T16:08:27;27.03;;;11.93;;
9034;SDS011;4552;43.422;24.592;2024-03-02T16:10:54;19.63;;;11.63;;
9034;SDS011;4552;43.422;24.592;2024-03-02T16:13:22;19.87;;;11.47;;
9034;SDS011;4552;43.422;24.592;2024-03-02T16:15:49;22.97;;;12.63;;
9034;SDS011;4552;43.422;24.592;2024-03-02T16:18:16;16.77;;;10.17;;
9034;SDS011;4552;43.422;24.592;2024-03-02T16:20:43;19.37;;;11.43;;
9034;SDS011;4552;43.422;24.592;2024-03-02T16:23:10;22.97;;;11.63;;
9034;SDS011;4552;43.422;24.592;2024-03-02T16:25:39;13.70;;;9.80;;
9034;SDS011;4552;43.422;24.592;2024-03-02T16:31:28;18.37;;;10.40;;
9034;SDS011;4552;43.422;24.592;2024-03-02T16:33:54;18.43;;;11.10;;
9034;SDS011;4552;43.422;24.592;2024-03-02T16:36:21;24.67;;;10.57;;
9034;SDS011;4552;43.422;24.592;2024-03-02T16:38:48;23.50;;;12.38;;
9034;SDS011;4552;43.422;24.592;2024-03-02T16:41:17;20.53;;;11.60;;
9034;SDS011;4552;43.422;24.592;2024-03-02T16:43:50;18.87;;;11.17;;
9034;SDS011;4552;43.422;24.592;2024-03-02T16:46:17;18.73;;;11.53;;
9034;SDS011;4552;43.422;24.592;2024-03-02T16:48:51;23.27;;;11.53;;
9034;SDS011;4552;43.422;24.592;2024-03-02T16:51:22;21.97;;;12.07;;
9034;SDS011;4552;43.422;24.592;2024-03-02T16:53:51;27.13;;;11.97;;
9034;SDS011;4552;43.422;24.592;2024-03-02T16:56:36;24.33;;;11.97;;
9034;SDS011;4552;43.422;24.592;2024-03-02T16:59:04;20.83;;;10.97;;
9034;SDS011;4552;43.422;24.592;2024-03-02T17:01:40;19.90;;;11.77;;
9034;SDS011;4552;43.422;24.592;2024-03-02T17:04:10;18.97;;;11.60;;
9034;SDS011;4552;43.422;24.592;2024-03-02T17:06:38;16.90;;;11.30;;
9034;SDS011;4552;43.422;24.592;2024-03-02T17:09:18;20.87;;;11.80;;
9034;SDS011;4552;43.422;24.592;2024-03-02T17:11:48;21.70;;;11.50;;
9034;SDS011;4552;43.422;24.592;2024-03-02T17:14:16;20.63;;;11.40;;
9034;SDS011;4552;43.422;24.592;2024-03-02T17:43:38;23.07;;;11.93;;
9034;SDS011;4552;43.422;24.592;2024-03-02T18:36:34;60.70;;;25.70;;
9034;SDS011;4552;43.422;24.592;2024-03-02T18:39:01;40.00;;;20.00;;
9034;SDS011;4552;43.422;24.592;2024-03-02T18:41:28;23.67;;;13.50;;
9034;SDS011;4552;43.422;24.592;2024-03-02T18:43:55;23.00;;;13.20;;
9034;SDS011;4552;43.422;24.592;2024-03-02T18:46:22;28.90;;;14.23;;
9034;SDS011;4552;43.422;24.592;2024-03-02T18:48:52;24.70;;;12.87;;
9034;SDS011;4552;43.422;24.592;2024-03-02T18:51:20;24.13;;;14.03;;
9034;SDS011;4552;43.422;24.592;2024-03-02T18:53:49;23.23;;;13.10;;
9034;SDS011;4552;43.422;24.592;2024-03-02T18:56:16;26.40;;;13.80;;
9034;SDS011;4552;43.422;24.592;2024-03-02T18:58:45;24.87;;;13.13;;
9034;SDS011;4552;43.422;24.592;2024-03-02T19:07:56;17.93;;;11.90;;
9034;SDS011;4552;43.422;24.592;2024-03-02T19:10:24;17.97;;;11.17;;
9034;SDS011;4552;43.422;24.592;2024-03-02T19:12:53;20.03;;;12.40;;
9034;SDS011;4552;43.422;24.592;2024-03-02T19:21:42;22.50;;;11.70;;
9034;SDS011;4552;43.422;24.592;2024-03-02T19:24:10;23.50;;;11.67;;
9034;SDS011;4552;43.422;24.592;2024-03-02T19:26:39;21.13;;;12.13;;
9034;SDS011;4552;43.422;24.592;2024-03-02T19:29:06;17.90;;;12.00;;
9034;SDS011;4552;43.422;24.592;2024-03-02T19:31:33;17.27;;;11.27;;
9034;SDS011;4552;43.422;24.592;2024-03-02T19:34:01;19.47;;;12.73;;
9034;SDS011;4552;43.422;24.592;2024-03-02T19:36:29;21.63;;;12.07;;
9034;SDS011;4552;43.422;24.592;2024-03-02T19:38:56;19.67;;;11.30;;
9034;SDS011;4552;43.422;24.592;2024-03-02T19:41:23;20.73;;;12.27;;
9034;SDS011;4552;43.422;24.592;2024-03-02T19:43:52;18.83;;;11.53;;
9034;SDS011;4552;43.422;24.592;2024-03-02T19:46:22;22.33;;;12.33;;
9034;SDS011;4552;43.422;24.592;2024-03-02T19:48:49;21.77;;;12.00;;
9034;SDS011;4552;43.422;24.592;2024-03-02T19:51:16;18.87;;;11.17;;
9034;SDS011;4552;43.422;24.592;2024-03-02T19:54:03;23.23;;;11.77;;
9034;SDS011;4552;43.422;24.592;2024-03-02T19:56:48;23.17;;;12.77;;
9034;SDS011;4552;43.422;24.592;2024-03-02T19:59:18;20.53;;;12.33;;
9034;SDS011;4552;43.422;24.592;2024-03-02T21:49:32;16.67;;;9.90;;
9034;SDS011;4552;43.422;24.592;2024-03-02T21:51:59;15.80;;;10.03;;
9034;SDS011;4552;43.422;24.592;2024-03-02T21:54:27;17.13;;;10.37;;
9034;SDS011;4552;43.422;24.592;2024-03-02T21:56:54;14.57;;;10.80;;
9034;SDS011;4552;43.422;24.592;2024-03-02T21:59:21;17.35;;;9.90;;
9034;SDS011;4552;43.422;24.592;2024-03-02T22:01:48;14.67;;;9.37;;
9034;SDS011;4552;43.422;24.592;2024-03-02T22:04:15;18.30;;;9.53;;
9034;SDS011;4552;43.422;24.592;2024-03-02T22:06:44;13.30;;;9.03;;
9034;SDS011;4552;43.422;24.592;2024-03-02T22:09:11;16.50;;;9.23;;
9034;SDS011;4552;43.422;24.592;2024-03-02T22:11:38;16.92;;;9.95;;
9034;SDS011;4552;43.422;24.592;2024-03-02T22:14:06;16.43;;;10.00;;
9034;SDS011;4552;43.422;24.592;2024-03-02T22:40:07;18.73;;;10.67;;
9034;SDS011;4552;43.422;24.592;2024-03-02T22:42:36;17.60;;;9.47;;
9034;SDS011;4552;43.422;24.592;2024-03-02T22:45:03;16.67;;;10.17;;
9034;SDS011;4552;43.422;24.592;2024-03-02T22:50:52;16.90;;;11.13;;
9034;SDS011;4552;43.422;24.592;2024-03-02T22:53:19;20.87;;;10.30;;
9034;SDS011;4552;43.422;24.592;2024-03-02T22:55:47;20.77;;;10.67;;
9034;SDS011;4552;43.422;24.592;2024-03-02T22:58:14;20.07;;;11.73;;
9034;SDS011;4552;43.422;24.592;2024-03-02T23:13:36;18.30;;;11.83;;
9034;SDS011;4552;43.422;24.592;2024-03-02T23:16:03;21.90;;;11.93;;
9034;SDS011;4552;43.422;24.592;2024-03-02T23:18:30;18.73;;;11.03;;
9034;SDS011;4552;43.422;24.592;2024-03-02T23:20:57;19.47;;;11.03;;
9034;SDS011;4552;43.422;24.592;2024-03-02T23:23:24;17.90;;;11.53;;
9034;SDS011;4552;43.422;24.592;2024-03-02T23:25:51;17.73;;;10.80;;
9034;SDS011;4552;43.422;24.592;2024-03-02T23:28:19;17.17;;;10.53;;
9034;SDS011;4552;43.422;24.592;2024-03-02T23:30:46;16.97;;;10.03;;
9034;SDS011;4552;43.422;24.592;2024-03-02T23:33:13;13.30;;;9.93;;
9034;SDS011;4552;43.422;24.592;2024-03-02T23:35:40;18.50;;;12.40;;
9034;SDS011;4552;43.422;24.592;2024-03-02T23:38:07;26.57;;;15.37;;
9034;SDS011;4552;43.422;24.592;2024-03-02T23:40:34;32.30;;;18.37;;
